createdAt,value
2018-01-22T00:03:21.283Z,0.09
2018-01-22T00:09:24.677Z,0.20
2018-01-22T00:15:28.114Z,0.23
2018-01-22T00:21:31.558Z,0.24
2018-01-22T00:27:35.750Z,0.28
2018-01-22T00:33:39.150Z,0.32
2018-01-22T00:39:42.634Z,0.30
2018-01-22T00:45:46.779Z,0.33
2018-01-22T00:51:50.970Z,0.40
2018-01-22T00:57:54.384Z,0.39
2018-01-22T01:03:57.812Z,0.37
2018-01-22T01:10:01.217Z,0.31
2018-01-22T01:16:05.585Z,0.37
2018-01-22T01:22:09.020Z,0.35
2018-01-22T01:28:13.188Z,0.25
2018-01-22T01:34:16.638Z,0.28
2018-01-22T01:40:20.886Z,0.29
2018-01-22T01:46:24.311Z,0.21
2018-01-22T01:52:27.722Z,0.23
2018-01-22T01:58:31.150Z,0.19
2018-01-22T02:04:34.563Z,0.16
2018-01-22T02:10:37.976Z,0.32
2018-01-22T02:16:41.371Z,0.40
2018-01-22T02:22:44.795Z,0.39
2018-01-22T02:28:48.232Z,0.41
2018-01-22T02:34:51.643Z,0.35
2018-01-22T02:40:55.052Z,0.37
2018-01-22T02:46:58.459Z,0.27
2018-01-22T02:53:01.880Z,0.29
2018-01-22T02:59:05.283Z,0.23
2018-01-22T03:05:08.695Z,0.19
2018-01-22T03:11:12.843Z,0.29
2018-01-22T03:17:16.261Z,0.23
2018-01-22T03:23:19.657Z,0.30
2018-01-22T03:29:23.825Z,0.36
2018-01-22T03:35:27.228Z,0.36
2018-01-22T03:41:30.894Z,0.40
2018-01-22T03:47:34.315Z,0.41
2018-01-22T03:53:37.728Z,0.45
2018-01-22T03:59:41.120Z,0.46
2018-01-22T04:05:44.579Z,0.56
2018-01-22T04:11:48.003Z,0.59
2018-01-22T04:17:51.417Z,0.63
2018-01-22T04:23:54.824Z,0.56
2018-01-22T04:29:58.263Z,0.46
2018-01-22T04:36:01.686Z,0.54
2018-01-22T04:42:05.152Z,0.60
2018-01-22T04:48:08.547Z,0.65
2018-01-22T04:54:12.732Z,0.67
2018-01-22T05:00:16.875Z,0.62
2018-01-22T05:06:20.281Z,0.61
2018-01-22T05:12:23.720Z,0.65
2018-01-22T05:18:27.116Z,0.59
2018-01-22T05:24:30.520Z,0.63
2018-01-22T05:30:33.918Z,0.68
2018-01-22T05:36:38.087Z,0.58
2018-01-22T05:42:41.506Z,0.70
2018-01-22T05:48:44.930Z,0.66
2018-01-22T05:54:48.329Z,0.69
2018-01-22T06:00:51.714Z,0.71
2018-01-22T06:06:55.132Z,0.69
2018-01-22T06:12:58.529Z,0.75
2018-01-22T06:19:01.995Z,0.66
2018-01-22T06:25:06.177Z,0.60
2018-01-22T06:31:09.603Z,0.60
2018-01-22T06:37:13.002Z,0.54
2018-01-22T06:43:16.426Z,0.56
2018-01-22T06:49:19.853Z,0.45
2018-01-22T06:55:23.286Z,0.51
2018-01-22T07:01:26.706Z,0.51
2018-01-22T07:07:30.381Z,0.58
2018-01-22T07:13:33.785Z,0.55
2018-01-22T07:19:37.956Z,0.57
2018-01-22T07:25:41.958Z,0.60
2018-01-22T07:31:45.366Z,0.44
2018-01-22T07:37:49.544Z,0.48
2018-01-22T07:43:52.948Z,0.57
2018-01-22T07:49:56.341Z,0.55
2018-01-22T07:56:00.549Z,0.56
2018-01-22T08:02:03.961Z,0.62
2018-01-22T08:08:07.399Z,0.60
2018-01-22T08:14:10.831Z,0.59
2018-01-22T08:20:15.036Z,0.63
2018-01-22T08:26:18.479Z,0.69
2018-01-22T08:32:21.903Z,0.83
2018-01-22T08:38:25.317Z,0.81
2018-01-22T08:44:28.710Z,0.86
2018-01-22T08:50:32.148Z,1.03
2018-01-22T08:56:35.581Z,0.95
2018-01-22T09:02:39.017Z,0.98
2018-01-22T09:08:43.232Z,1.08
2018-01-22T09:14:46.638Z,1.17
2018-01-22T09:20:50.057Z,1.38
2018-01-22T09:26:53.533Z,1.46
2018-01-22T09:32:56.948Z,1.40
2018-01-22T09:39:00.622Z,1.42
2018-01-22T09:45:04.021Z,1.36
2018-01-22T09:51:08.191Z,1.39
2018-01-22T09:57:11.615Z,1.39
2018-01-22T10:03:15.047Z,1.46
2018-01-22T10:09:19.232Z,1.49
2018-01-22T10:15:22.654Z,1.71
2018-01-22T10:21:26.070Z,1.66
2018-01-22T10:27:29.495Z,1.61
2018-01-22T10:33:33.038Z,1.72
2018-01-22T10:39:36.468Z,1.78
2018-01-22T10:45:39.891Z,1.59
2018-01-22T10:51:44.072Z,1.73
2018-01-22T10:57:47.483Z,1.88
2018-01-22T11:03:50.881Z,1.99
2018-01-22T11:09:55.062Z,1.98
2018-01-22T11:16:03.848Z,1.99
2018-01-22T11:22:08.033Z,2.03
2018-01-22T11:28:11.450Z,1.88
2018-01-22T11:34:14.945Z,2.00
2018-01-22T11:40:18.398Z,1.99
2018-01-22T11:46:21.823Z,1.86
2018-01-22T11:52:25.277Z,2.00
2018-01-22T11:58:28.707Z,1.96
2018-01-22T12:04:32.904Z,2.00
2018-01-22T12:10:37.076Z,1.97
2018-01-22T12:16:40.486Z,2.09
2018-01-22T12:22:43.898Z,2.23
2018-01-22T12:28:47.302Z,2.05
2018-01-22T12:34:50.703Z,2.03
2018-01-22T12:40:54.103Z,2.03
2018-01-22T12:46:57.493Z,1.99
2018-01-22T12:53:01.657Z,2.16
2018-01-22T12:59:05.055Z,2.12
2018-01-22T13:05:09.205Z,2.03
2018-01-22T13:11:12.602Z,2.02
2018-01-22T13:17:16.788Z,2.11
2018-01-22T13:23:20.226Z,2.15
2018-01-22T13:29:23.650Z,2.15
2018-01-22T13:35:27.129Z,2.10
2018-01-22T13:41:30.999Z,2.24
2018-01-22T13:47:34.406Z,2.43
2018-01-22T13:53:37.802Z,2.25
2018-01-22T13:59:41.221Z,2.28
2018-01-22T14:05:44.698Z,2.32
2018-01-22T14:11:48.873Z,2.49
2018-01-22T14:17:52.275Z,2.50
2018-01-22T14:23:55.678Z,2.61
2018-01-22T14:29:59.842Z,2.47
2018-01-22T14:36:03.298Z,2.32
2018-01-22T14:42:06.710Z,2.35
2018-01-22T14:48:10.108Z,2.40
2018-01-22T14:54:13.490Z,2.32
2018-01-22T15:00:16.932Z,2.44
2018-01-22T15:06:20.349Z,2.38
2018-01-22T15:12:23.775Z,2.24
2018-01-22T15:18:27.187Z,2.22
2018-01-22T15:24:30.624Z,2.12
2018-01-22T15:30:34.027Z,2.07
2018-01-22T15:36:37.455Z,2.18
2018-01-22T15:42:40.891Z,2.13
2018-01-22T15:48:44.398Z,2.05
2018-01-22T15:54:47.748Z,2.14
2018-01-22T16:00:51.958Z,2.04
2018-01-22T16:06:55.354Z,2.14
2018-01-22T16:12:58.759Z,2.03
2018-01-22T16:19:02.979Z,1.97
2018-01-22T16:25:06.377Z,2.01
2018-01-22T16:31:09.821Z,1.86
2018-01-22T16:37:13.241Z,1.92
2018-01-22T16:49:27.984Z,1.92
2018-01-22T16:55:32.153Z,2.00
2018-01-22T17:01:35.601Z,2.04
2018-01-22T17:07:39.046Z,2.07
2018-01-22T17:13:43.223Z,2.15
2018-01-22T17:19:46.722Z,2.21
2018-01-22T17:25:50.886Z,2.26
2018-01-22T17:31:54.324Z,2.34
2018-01-22T17:37:58.508Z,2.48
2018-01-22T17:44:02.714Z,2.67
2018-01-22T17:50:06.141Z,2.90
2018-01-22T17:56:09.604Z,2.98
2018-01-22T18:02:13.089Z,2.94
2018-01-22T18:08:16.516Z,2.89
2018-01-22T18:14:20.700Z,2.87
2018-01-22T18:20:24.115Z,2.86
2018-01-22T18:26:27.542Z,2.94
2018-01-22T18:32:30.986Z,2.89
2018-01-22T18:38:34.388Z,2.91
2018-01-22T18:44:37.811Z,3.01
2018-01-22T18:50:41.220Z,3.00
2018-01-22T18:56:44.636Z,2.90
2018-01-22T19:02:48.048Z,2.85
2018-01-22T19:08:51.493Z,2.84
2018-01-22T19:14:54.908Z,2.97
2018-01-22T19:20:58.346Z,3.13
2018-01-22T19:27:01.752Z,3.31
2018-01-22T19:33:05.161Z,3.28
2018-01-22T19:39:08.583Z,3.33
2018-01-22T19:45:12.018Z,3.16
2018-01-22T19:51:15.453Z,3.15
2018-01-22T19:57:18.816Z,3.11
2018-01-22T20:03:22.291Z,3.06
2018-01-22T20:09:25.741Z,3.17
2018-01-22T20:15:30.052Z,3.32
2018-01-22T20:21:34.275Z,3.36
2018-01-22T20:27:37.729Z,3.46
2018-01-22T20:33:41.161Z,3.51
2018-01-22T20:39:44.562Z,3.53
2018-01-22T20:45:48.743Z,3.64
2018-01-22T20:51:52.155Z,3.74
2018-01-22T20:57:55.571Z,3.81
2018-01-22T21:03:59.055Z,4.01
2018-01-22T21:10:03.245Z,4.13
2018-01-22T21:16:06.673Z,4.20
2018-01-22T21:22:10.100Z,4.12
2018-01-22T21:28:13.532Z,4.02
2018-01-22T21:34:17.016Z,3.95
2018-01-22T21:40:20.455Z,3.90
2018-01-22T21:46:23.885Z,3.94
2018-01-22T21:52:27.325Z,3.92
2018-01-22T21:58:31.484Z,3.86
2018-01-22T22:04:34.877Z,3.91
2018-01-22T22:10:39.067Z,3.87
2018-01-22T22:16:42.746Z,3.93
2018-01-22T22:22:46.962Z,4.15
2018-01-22T22:28:51.208Z,4.33
2018-01-22T22:34:54.606Z,4.32
2018-01-22T22:40:58.000Z,4.37
2018-01-22T22:47:01.431Z,4.44
2018-01-22T22:53:05.601Z,4.51
2018-01-22T22:59:09.780Z,4.57
2018-01-22T23:05:13.202Z,4.58
2018-01-22T23:11:16.599Z,4.52
2018-01-22T23:17:20.002Z,4.60
2018-01-22T23:23:24.230Z,4.60
2018-01-22T23:29:27.635Z,4.55
2018-01-22T23:35:31.034Z,4.56
2018-01-22T23:41:34.427Z,4.63
2018-01-22T23:47:37.844Z,4.63
2018-01-22T23:53:41.237Z,4.57
2018-01-22T23:59:45.428Z,4.45
